createdAt,value
2023-04-12T00:03:41.739Z,64.82
2023-04-12T00:08:35.559Z,64.38
2023-04-12T00:13:27.275Z,65.62
2023-04-12T00:18:19.286Z,65.12
2023-04-12T00:23:12.934Z,64.54
2023-04-12T00:28:05.351Z,64.85
2023-04-12T00:32:57.065Z,66.30
2023-04-12T00:37:51.588Z,65.36
2023-04-12T00:42:43.360Z,67.08
2023-04-12T00:47:36.603Z,67.25
2023-04-12T00:52:34.414Z,68.08
2023-04-12T00:57:26.384Z,69.61
2023-04-12T01:02:18.680Z,69.32
2023-04-12T01:07:30.997Z,69.82
2023-04-12T01:12:47.621Z,69.88
2023-04-12T01:18:04.247Z,69.51
2023-04-12T01:23:24.216Z,71.53
2023-04-12T01:28:22.546Z,71.19
2023-04-12T01:33:16.124Z,71.92
2023-04-12T01:38:07.946Z,72.03
2023-04-12T01:43:09.624Z,72.06
2023-04-12T01:48:02.270Z,71.77
2023-04-12T01:53:26.896Z,73.13
2023-04-12T01:58:22.073Z,74.26
2023-04-12T02:03:14.403Z,75.30
2023-04-12T02:08:06.540Z,75.47
2023-04-12T02:13:00.444Z,75.75
2023-04-12T02:17:53.910Z,75.67
2023-04-12T02:22:46.661Z,75.94
2023-04-12T02:27:38.750Z,76.24
2023-04-12T02:32:31.280Z,76.60
2023-04-12T02:37:27.441Z,76.85
2023-04-12T02:42:19.447Z,77.58
2023-04-12T02:47:14.193Z,78.02
2023-04-12T02:52:09.869Z,79.65
2023-04-12T02:57:09.423Z,80.12
2023-04-12T03:02:05.930Z,81.20
2023-04-12T03:06:59.214Z,81.54
2023-04-12T03:12:04.290Z,82.86
2023-04-12T03:17:00.371Z,82.09
2023-04-12T03:21:52.687Z,82.53
2023-04-12T03:26:45.083Z,84.31
2023-04-12T03:31:41.925Z,84.05
2023-04-12T03:36:34.998Z,84.03
2023-04-12T03:41:37.416Z,83.81
2023-04-12T03:46:30.137Z,84.10
2023-04-12T03:51:27.141Z,84.74
2023-04-12T03:56:25.224Z,85.22
2023-04-12T04:01:20.237Z,84.40
2023-04-12T04:06:13.356Z,84.16
2023-04-12T04:11:07.233Z,83.71
2023-04-12T04:21:15.897Z,84.88
2023-04-12T04:26:12.514Z,84.91
2023-04-12T04:36:30.081Z,85.80
2023-04-12T04:46:38.694Z,86.57
2023-04-12T04:51:32.806Z,87.07
2023-04-12T22:30:49.759Z,64.39
2023-04-12T22:35:41.785Z,64.26
2023-04-12T22:40:33.555Z,64.67
2023-04-12T22:45:25.358Z,64.71
2023-04-12T22:50:17.146Z,65.99
2023-04-12T22:55:11.638Z,66.06
2023-04-12T23:00:07.442Z,66.41
2023-04-12T23:04:59.937Z,66.81
2023-04-12T23:09:52.720Z,67.73
2023-04-12T23:14:44.997Z,68.20
2023-04-12T23:19:36.722Z,68.36
2023-04-12T23:24:28.500Z,68.28
2023-04-12T23:29:21.628Z,67.34
2023-04-12T23:34:13.654Z,67.64
2023-04-12T23:39:09.407Z,67.17
2023-04-12T23:44:01.971Z,66.89
2023-04-12T23:48:53.934Z,66.38
2023-04-12T23:53:45.820Z,66.02
2023-04-12T23:58:37.530Z,64.37
